sensor_id;sensor_type;location;lat;lon;timestamp;temperature;humidity
68912;SHT31;55953;51.650;-0.522;2022-12-18T00:01:45;-1.51;87.81
68912;SHT31;55953;51.650;-0.522;2022-12-18T00:04:15;-1.52;87.83
68912;SHT31;55953;51.650;-0.522;2022-12-18T00:06:50;-1.55;87.76
68912;SHT31;55953;51.650;-0.522;2022-12-18T00:09:19;-1.55;87.89
68912;SHT31;55953;51.650;-0.522;2022-12-18T00:11:51;-1.52;87.95
68912;SHT31;55953;51.650;-0.522;2022-12-18T00:14:18;-1.54;87.95
68912;SHT31;55953;51.650;-0.522;2022-12-18T00:16:46;-1.56;87.91
68912;SHT31;55953;51.650;-0.522;2022-12-18T00:19:14;-1.58;87.82
68912;SHT31;55953;51.650;-0.522;2022-12-18T00:21:43;-1.64;87.83
68912;SHT31;55953;51.650;-0.522;2022-12-18T00:24:11;-1.64;87.76
68912;SHT31;55953;51.650;-0.522;2022-12-18T00:26:39;-1.65;87.80
68912;SHT31;55953;51.650;-0.522;2022-12-18T00:29:11;-1.63;88.03
68912;SHT31;55953;51.650;-0.522;2022-12-18T00:31:43;-1.68;87.66
68912;SHT31;55953;51.650;-0.522;2022-12-18T00:34:12;-1.75;87.53
68912;SHT31;55953;51.650;-0.522;2022-12-18T00:36:41;-1.81;87.52
68912;SHT31;55953;51.650;-0.522;2022-12-18T00:39:09;-1.82;87.51
68912;SHT31;55953;51.650;-0.522;2022-12-18T00:41:38;-1.88;87.38
68912;SHT31;55953;51.650;-0.522;2022-12-18T00:44:25;-1.90;87.62
68912;SHT31;55953;51.650;-0.522;2022-12-18T00:46:53;-1.92;87.65
68912;SHT31;55953;51.650;-0.522;2022-12-18T00:49:21;-1.92;87.94
68912;SHT31;55953;51.650;-0.522;2022-12-18T00:51:49;-1.93;87.89
68912;SHT31;55953;51.650;-0.522;2022-12-18T00:54:17;-1.94;87.84
68912;SHT31;55953;51.650;-0.522;2022-12-18T00:56:45;-1.94;87.84
68912;SHT31;55953;51.650;-0.522;2022-12-18T00:59:17;-1.89;87.89
68912;SHT31;55953;51.650;-0.522;2022-12-18T01:01:45;-1.86;87.64
68912;SHT31;55953;51.650;-0.522;2022-12-18T01:04:14;-1.93;87.36
68912;SHT31;55953;51.650;-0.522;2022-12-18T01:06:45;-1.96;87.55
68912;SHT31;55953;51.650;-0.522;2022-12-18T01:09:13;-2.04;87.39
68912;SHT31;55953;51.650;-0.522;2022-12-18T01:11:41;-2.11;87.49
68912;SHT31;55953;51.650;-0.522;2022-12-18T01:14:10;-2.11;87.53
68912;SHT31;55953;51.650;-0.522;2022-12-18T01:16:38;-2.11;87.77
68912;SHT31;55953;51.650;-0.522;2022-12-18T01:19:06;-2.12;87.91
68912;SHT31;55953;51.650;-0.522;2022-12-18T01:21:35;-2.09;88.01
68912;SHT31;55953;51.650;-0.522;2022-12-18T01:24:04;-2.08;87.92
68912;SHT31;55953;51.650;-0.522;2022-12-18T01:26:33;-2.09;87.84
68912;SHT31;55953;51.650;-0.522;2022-12-18T01:29:01;-2.12;87.79
68912;SHT31;55953;51.650;-0.522;2022-12-18T01:31:30;-2.18;87.69
68912;SHT31;55953;51.650;-0.522;2022-12-18T01:34:03;-2.20;87.82
68912;SHT31;55953;51.650;-0.522;2022-12-18T01:36:35;-2.21;87.85
68912;SHT31;55953;51.650;-0.522;2022-12-18T01:39:08;-2.24;87.80
68912;SHT31;55953;51.650;-0.522;2022-12-18T01:41:41;-2.28;87.89
68912;SHT31;55953;51.650;-0.522;2022-12-18T01:53:11;-2.25;88.13
68912;SHT31;55953;51.650;-0.522;2022-12-18T01:55:51;-2.23;88.19
68912;SHT31;55953;51.650;-0.522;2022-12-18T01:58:24;-2.20;88.24
68912;SHT31;55953;51.650;-0.522;2022-12-18T02:01:07;-2.18;88.20
68912;SHT31;55953;51.650;-0.522;2022-12-18T02:03:36;-2.16;88.27
68912;SHT31;55953;51.650;-0.522;2022-12-18T02:08:41;-2.10;88.19
68912;SHT31;55953;51.650;-0.522;2022-12-18T02:14:35;-2.10;88.05
68912;SHT31;55953;51.650;-0.522;2022-12-18T02:17:18;-2.10;88.20
68912;SHT31;55953;51.650;-0.522;2022-12-18T02:22:57;-2.05;88.54
68912;SHT31;55953;51.650;-0.522;2022-12-18T02:28:56;-2.08;88.49
68912;SHT31;55953;51.650;-0.522;2022-12-18T02:31:43;-2.03;88.54
68912;SHT31;55953;51.650;-0.522;2022-12-18T02:34:19;-2.04;88.52
68912;SHT31;55953;51.650;-0.522;2022-12-18T02:36:54;-2.06;88.33
68912;SHT31;55953;51.650;-0.522;2022-12-18T02:39:26;-2.03;88.28
68912;SHT31;55953;51.650;-0.522;2022-12-18T02:42:01;-2.05;88.08
68912;SHT31;55953;51.650;-0.522;2022-12-18T02:44:35;-2.05;88.05
68912;SHT31;55953;51.650;-0.522;2022-12-18T02:47:12;-2.09;88.11
68912;SHT31;55953;51.650;-0.522;2022-12-18T02:49:52;-2.09;88.13
68912;SHT31;55953;51.650;-0.522;2022-12-18T02:52:33;-2.06;88.39
68912;SHT31;55953;51.650;-0.522;2022-12-18T02:58:51;-1.96;88.59
68912;SHT31;55953;51.650;-0.522;2022-12-18T03:01:51;-1.93;88.14
68912;SHT31;55953;51.650;-0.522;2022-12-18T03:04:34;-1.93;87.96
68912;SHT31;55953;51.650;-0.522;2022-12-18T03:07:21;-1.96;87.75
68912;SHT31;55953;51.650;-0.522;2022-12-18T03:10:05;-1.90;87.99
68912;SHT31;55953;51.650;-0.522;2022-12-18T03:12:40;-1.93;87.61
68912;SHT31;55953;51.650;-0.522;2022-12-18T03:18:19;-1.97;87.54
68912;SHT31;55953;51.650;-0.522;2022-12-18T03:20:53;-1.90;87.56
68912;SHT31;55953;51.650;-0.522;2022-12-18T03:23:29;-1.87;87.36
68912;SHT31;55953;51.650;-0.522;2022-12-18T03:26:05;-1.87;87.39
68912;SHT31;55953;51.650;-0.522;2022-12-18T03:28:39;-1.81;87.48
68912;SHT31;55953;51.650;-0.522;2022-12-18T03:31:19;-1.84;87.16
68912;SHT31;55953;51.650;-0.522;2022-12-18T03:33:54;-1.89;87.31
68912;SHT31;55953;51.650;-0.522;2022-12-18T03:36:33;-1.90;87.50
68912;SHT31;55953;51.650;-0.522;2022-12-18T03:39:02;-1.90;87.62
68912;SHT31;55953;51.650;-0.522;2022-12-18T03:41:33;-1.86;87.73
68912;SHT31;55953;51.650;-0.522;2022-12-18T03:47:57;-1.89;87.55
68912;SHT31;55953;51.650;-0.522;2022-12-18T03:50:52;-1.87;87.57
68912;SHT31;55953;51.650;-0.522;2022-12-18T03:53:41;-1.90;87.52
68912;SHT31;55953;51.650;-0.522;2022-12-18T03:56:20;-1.90;87.68
68912;SHT31;55953;51.650;-0.522;2022-12-18T03:58:54;-1.86;87.65
68912;SHT31;55953;51.650;-0.522;2022-12-18T04:01:28;-1.85;87.55
68912;SHT31;55953;51.650;-0.522;2022-12-18T04:04:00;-1.85;87.53
68912;SHT31;55953;51.650;-0.522;2022-12-18T04:06:32;-1.83;87.53
68912;SHT31;55953;51.650;-0.522;2022-12-18T04:09:04;-1.78;87.44
68912;SHT31;55953;51.650;-0.522;2022-12-18T04:11:35;-1.77;87.44
68912;SHT31;55953;51.650;-0.522;2022-12-18T04:14:03;-1.74;87.59
68912;SHT31;55953;51.650;-0.522;2022-12-18T04:16:34;-1.68;87.54
68912;SHT31;55953;51.650;-0.522;2022-12-18T04:19:02;-1.63;87.53
68912;SHT31;55953;51.650;-0.522;2022-12-18T04:21:36;-1.63;87.34
68912;SHT31;55953;51.650;-0.522;2022-12-18T04:24:03;-1.64;87.19
68912;SHT31;55953;51.650;-0.522;2022-12-18T04:26:32;-1.66;87.11
68912;SHT31;55953;51.650;-0.522;2022-12-18T04:29:16;-1.67;87.14
68912;SHT31;55953;51.650;-0.522;2022-12-18T04:31:44;-1.65;87.30
68912;SHT31;55953;51.650;-0.522;2022-12-18T04:34:11;-1.63;87.45
68912;SHT31;55953;51.650;-0.522;2022-12-18T04:36:47;-1.59;87.40
68912;SHT31;55953;51.650;-0.522;2022-12-18T04:39:15;-1.58;87.18
68912;SHT31;55953;51.650;-0.522;2022-12-18T04:41:43;-1.61;86.99
68912;SHT31;55953;51.650;-0.522;2022-12-18T04:44:12;-1.55;87.31
68912;SHT31;55953;51.650;-0.522;2022-12-18T04:46:41;-1.49;87.25
68912;SHT31;55953;51.650;-0.522;2022-12-18T04:49:09;-1.45;87.15
68912;SHT31;55953;51.650;-0.522;2022-12-18T04:51:38;-1.35;87.12
68912;SHT31;55953;51.650;-0.522;2022-12-18T04:54:06;-1.34;86.76
68912;SHT31;55953;51.650;-0.522;2022-12-18T04:56:33;-1.44;86.81
68912;SHT31;55953;51.650;-0.522;2022-12-18T04:59:01;-1.43;86.99
68912;SHT31;55953;51.650;-0.522;2022-12-18T05:01:29;-1.40;86.89
68912;SHT31;55953;51.650;-0.522;2022-12-18T05:04:01;-1.38;86.88
68912;SHT31;55953;51.650;-0.522;2022-12-18T05:06:30;-1.40;86.82
68912;SHT31;55953;51.650;-0.522;2022-12-18T05:08:58;-1.39;86.73
68912;SHT31;55953;51.650;-0.522;2022-12-18T05:11:25;-1.41;86.70
68912;SHT31;55953;51.650;-0.522;2022-12-18T05:13:53;-1.37;86.84
68912;SHT31;55953;51.650;-0.522;2022-12-18T05:16:21;-1.34;86.89
68912;SHT31;55953;51.650;-0.522;2022-12-18T05:18:49;-1.30;86.94
68912;SHT31;55953;51.650;-0.522;2022-12-18T05:21:16;-1.32;86.84
68912;SHT31;55953;51.650;-0.522;2022-12-18T05:23:44;-1.39;86.77
68912;SHT31;55953;51.650;-0.522;2022-12-18T05:26:14;-1.41;87.08
68912;SHT31;55953;51.650;-0.522;2022-12-18T05:28:44;-1.41;87.48
68912;SHT31;55953;51.650;-0.522;2022-12-18T05:31:13;-1.39;87.69
68912;SHT31;55953;51.650;-0.522;2022-12-18T05:33:41;-1.41;87.66
68912;SHT31;55953;51.650;-0.522;2022-12-18T05:36:10;-1.41;87.72
68912;SHT31;55953;51.650;-0.522;2022-12-18T05:38:38;-1.35;87.93
68912;SHT31;55953;51.650;-0.522;2022-12-18T05:41:07;-1.33;87.95
68912;SHT31;55953;51.650;-0.522;2022-12-18T05:43:37;-1.33;88.01
68912;SHT31;55953;51.650;-0.522;2022-12-18T05:46:09;-1.32;87.98
68912;SHT31;55953;51.650;-0.522;2022-12-18T05:48:41;-1.32;87.95
68912;SHT31;55953;51.650;-0.522;2022-12-18T05:51:11;-1.29;87.88
68912;SHT31;55953;51.650;-0.522;2022-12-18T05:53:43;-1.27;88.04
68912;SHT31;55953;51.650;-0.522;2022-12-18T05:56:13;-1.19;88.19
68912;SHT31;55953;51.650;-0.522;2022-12-18T05:58:45;-1.15;88.08
68912;SHT31;55953;51.650;-0.522;2022-12-18T06:01:15;-1.11;88.01
68912;SHT31;55953;51.650;-0.522;2022-12-18T06:03:46;-1.09;87.92
68912;SHT31;55953;51.650;-0.522;2022-12-18T06:06:15;-1.06;87.85
68912;SHT31;55953;51.650;-0.522;2022-12-18T06:08:51;-1.02;87.79
68912;SHT31;55953;51.650;-0.522;2022-12-18T06:11:21;-0.99;87.66
68912;SHT31;55953;51.650;-0.522;2022-12-18T06:13:53;-0.97;87.77
68912;SHT31;55953;51.650;-0.522;2022-12-18T06:16:29;-0.92;87.83
68912;SHT31;55953;51.650;-0.522;2022-12-18T06:19:01;-0.82;87.74
68912;SHT31;55953;51.650;-0.522;2022-12-18T06:21:32;-0.80;87.65
68912;SHT31;55953;51.650;-0.522;2022-12-18T06:24:01;-0.75;87.73
68912;SHT31;55953;51.650;-0.522;2022-12-18T06:26:29;-0.72;87.76
68912;SHT31;55953;51.650;-0.522;2022-12-18T06:28:57;-0.65;87.96
68912;SHT31;55953;51.650;-0.522;2022-12-18T06:31:25;-0.58;87.99
68912;SHT31;55953;51.650;-0.522;2022-12-18T06:33:53;-0.54;87.77
68912;SHT31;55953;51.650;-0.522;2022-12-18T06:36:21;-0.55;87.63
68912;SHT31;55953;51.650;-0.522;2022-12-18T06:38:49;-0.56;87.72
68912;SHT31;55953;51.650;-0.522;2022-12-18T06:41:18;-0.51;88.03
68912;SHT31;55953;51.650;-0.522;2022-12-18T06:43:48;-0.43;88.04
68912;SHT31;55953;51.650;-0.522;2022-12-18T06:46:16;-0.39;87.92
68912;SHT31;55953;51.650;-0.522;2022-12-18T06:48:46;-0.36;88.16
68912;SHT31;55953;51.650;-0.522;2022-12-18T06:51:19;-0.35;88.37
68912;SHT31;55953;51.650;-0.522;2022-12-18T06:53:50;-0.31;88.26
68912;SHT31;55953;51.650;-0.522;2022-12-18T06:56:17;-0.28;88.15
68912;SHT31;55953;51.650;-0.522;2022-12-18T06:58:45;-0.26;88.17
68912;SHT31;55953;51.650;-0.522;2022-12-18T07:01:13;-0.24;88.24
68912;SHT31;55953;51.650;-0.522;2022-12-18T07:03:41;-0.16;88.48
68912;SHT31;55953;51.650;-0.522;2022-12-18T07:06:14;-0.10;88.36
68912;SHT31;55953;51.650;-0.522;2022-12-18T07:08:46;-0.07;88.43
68912;SHT31;55953;51.650;-0.522;2022-12-18T07:11:15;-0.03;88.55
68912;SHT31;55953;51.650;-0.522;2022-12-18T07:13:44;0.06;88.59
68912;SHT31;55953;51.650;-0.522;2022-12-18T07:16:14;0.13;88.45
68912;SHT31;55953;51.650;-0.522;2022-12-18T07:18:52;0.16;88.38
68912;SHT31;55953;51.650;-0.522;2022-12-18T07:21:23;0.18;88.55
68912;SHT31;55953;51.650;-0.522;2022-12-18T07:23:51;0.24;88.63
68912;SHT31;55953;51.650;-0.522;2022-12-18T07:26:20;0.30;88.68
68912;SHT31;55953;51.650;-0.522;2022-12-18T07:28:49;0.34;88.64
68912;SHT31;55953;51.650;-0.522;2022-12-18T07:31:21;0.40;88.69
68912;SHT31;55953;51.650;-0.522;2022-12-18T07:33:50;0.44;88.53
68912;SHT31;55953;51.650;-0.522;2022-12-18T07:36:19;0.44;88.58
68912;SHT31;55953;51.650;-0.522;2022-12-18T07:38:47;0.49;88.64
68912;SHT31;55953;51.650;-0.522;2022-12-18T07:41:17;0.54;88.60
68912;SHT31;55953;51.650;-0.522;2022-12-18T07:43:46;0.56;88.59
68912;SHT31;55953;51.650;-0.522;2022-12-18T07:46:14;0.58;88.59
68912;SHT31;55953;51.650;-0.522;2022-12-18T07:48:43;0.63;88.62
68912;SHT31;55953;51.650;-0.522;2022-12-18T07:51:17;0.63;88.61
68912;SHT31;55953;51.650;-0.522;2022-12-18T07:53:46;0.65;88.69
68912;SHT31;55953;51.650;-0.522;2022-12-18T07:56:19;0.67;88.73
68912;SHT31;55953;51.650;-0.522;2022-12-18T07:58:58;0.71;88.69
68912;SHT31;55953;51.650;-0.522;2022-12-18T08:01:26;0.74;88.67
68912;SHT31;55953;51.650;-0.522;2022-12-18T08:03:55;0.78;88.60
68912;SHT31;55953;51.650;-0.522;2022-12-18T08:06:24;0.81;88.55
68912;SHT31;55953;51.650;-0.522;2022-12-18T08:08:53;0.81;88.50
68912;SHT31;55953;51.650;-0.522;2022-12-18T08:11:23;0.85;88.45
68912;SHT31;55953;51.650;-0.522;2022-12-18T08:13:53;0.85;88.44
68912;SHT31;55953;51.650;-0.522;2022-12-18T08:16:22;0.87;88.41
68912;SHT31;55953;51.650;-0.522;2022-12-18T08:18:51;0.88;88.39
68912;SHT31;55953;51.650;-0.522;2022-12-18T08:21:22;0.87;88.39
68912;SHT31;55953;51.650;-0.522;2022-12-18T08:23:54;0.91;88.45
68912;SHT31;55953;51.650;-0.522;2022-12-18T08:26:27;0.91;88.41
68912;SHT31;55953;51.650;-0.522;2022-12-18T08:28:58;0.94;88.35
68912;SHT31;55953;51.650;-0.522;2022-12-18T08:31:28;0.95;88.37
68912;SHT31;55953;51.650;-0.522;2022-12-18T08:33:57;0.97;88.32
68912;SHT31;55953;51.650;-0.522;2022-12-18T08:36:25;0.99;88.35
68912;SHT31;55953;51.650;-0.522;2022-12-18T08:38:53;1.02;88.25
68912;SHT31;55953;51.650;-0.522;2022-12-18T08:41:21;1.04;88.26
68912;SHT31;55953;51.650;-0.522;2022-12-18T08:43:50;1.08;88.18
68912;SHT31;55953;51.650;-0.522;2022-12-18T08:46:37;1.11;88.12
68912;SHT31;55953;51.650;-0.522;2022-12-18T08:49:08;1.12;88.05
68912;SHT31;55953;51.650;-0.522;2022-12-18T08:51:38;1.14;88.00
68912;SHT31;55953;51.650;-0.522;2022-12-18T08:54:07;1.18;88.06
68912;SHT31;55953;51.650;-0.522;2022-12-18T08:56:38;1.22;87.95
68912;SHT31;55953;51.650;-0.522;2022-12-18T08:59:05;1.23;87.92
68912;SHT31;55953;51.650;-0.522;2022-12-18T09:01:33;1.26;87.94
68912;SHT31;55953;51.650;-0.522;2022-12-18T09:04:02;1.29;87.93
68912;SHT31;55953;51.650;-0.522;2022-12-18T09:06:30;1.35;87.96
68912;SHT31;55953;51.650;-0.522;2022-12-18T09:08:58;1.41;87.83
68912;SHT31;55953;51.650;-0.522;2022-12-18T09:11:27;1.45;87.67
68912;SHT31;55953;51.650;-0.522;2022-12-18T09:13:57;1.45;87.61
68912;SHT31;55953;51.650;-0.522;2022-12-18T09:16:27;1.47;87.50
68912;SHT31;55953;51.650;-0.522;2022-12-18T09:18:59;1.51;87.55
68912;SHT31;55953;51.650;-0.522;2022-12-18T09:21:28;1.52;87.33
68912;SHT31;55953;51.650;-0.522;2022-12-18T09:24:03;1.53;87.39
68912;SHT31;55953;51.650;-0.522;2022-12-18T09:26:35;1.55;87.40
68912;SHT31;55953;51.650;-0.522;2022-12-18T09:29:03;1.59;87.45
68912;SHT31;55953;51.650;-0.522;2022-12-18T09:31:31;1.59;87.12
68912;SHT31;55953;51.650;-0.522;2022-12-18T09:33:59;1.59;87.23
68912;SHT31;55953;51.650;-0.522;2022-12-18T09:36:27;1.64;87.30
68912;SHT31;55953;51.650;-0.522;2022-12-18T09:38:55;1.69;87.37
68912;SHT31;55953;51.650;-0.522;2022-12-18T09:44:27;1.83;87.05
68912;SHT31;55953;51.650;-0.522;2022-12-18T09:49:49;1.87;86.87
68912;SHT31;55953;51.650;-0.522;2022-12-18T09:52:34;1.91;86.84
68912;SHT31;55953;51.650;-0.522;2022-12-18T09:55:17;1.92;86.77
68912;SHT31;55953;51.650;-0.522;2022-12-18T09:58:07;2.05;86.96
68912;SHT31;55953;51.650;-0.522;2022-12-18T10:00:46;2.16;86.49
68912;SHT31;55953;51.650;-0.522;2022-12-18T10:03:15;2.12;86.36
68912;SHT31;55953;51.650;-0.522;2022-12-18T10:11:29;2.13;86.35
68912;SHT31;55953;51.650;-0.522;2022-12-18T10:17:26;2.11;86.29
68912;SHT31;55953;51.650;-0.522;2022-12-18T10:20:21;2.13;86.44
68912;SHT31;55953;51.650;-0.522;2022-12-18T10:23:12;2.15;86.20
68912;SHT31;55953;51.650;-0.522;2022-12-18T10:25:52;2.14;86.11
68912;SHT31;55953;51.650;-0.522;2022-12-18T10:28:25;2.19;86.31
68912;SHT31;55953;51.650;-0.522;2022-12-18T10:30:54;2.27;86.14
68912;SHT31;55953;51.650;-0.522;2022-12-18T10:33:23;2.32;85.84
68912;SHT31;55953;51.650;-0.522;2022-12-18T10:35:56;2.33;85.85
68912;SHT31;55953;51.650;-0.522;2022-12-18T10:38:26;2.35;85.90
68912;SHT31;55953;51.650;-0.522;2022-12-18T10:40:58;2.33;85.68
68912;SHT31;55953;51.650;-0.522;2022-12-18T10:43:36;2.35;85.69
68912;SHT31;55953;51.650;-0.522;2022-12-18T10:46:12;2.35;85.80
68912;SHT31;55953;51.650;-0.522;2022-12-18T10:51:22;2.33;85.59
68912;SHT31;55953;51.650;-0.522;2022-12-18T10:54:14;2.35;85.79
68912;SHT31;55953;51.650;-0.522;2022-12-18T10:56:46;2.39;85.69
68912;SHT31;55953;51.650;-0.522;2022-12-18T10:59:15;2.44;85.70
68912;SHT31;55953;51.650;-0.522;2022-12-18T11:01:50;2.43;85.56
68912;SHT31;55953;51.650;-0.522;2022-12-18T11:07:02;2.57;85.54
68912;SHT31;55953;51.650;-0.522;2022-12-18T11:09:36;2.54;85.40
68912;SHT31;55953;51.650;-0.522;2022-12-18T11:14:53;2.54;85.51
68912;SHT31;55953;51.650;-0.522;2022-12-18T11:17:30;2.56;85.67
68912;SHT31;55953;51.650;-0.522;2022-12-18T11:20:03;2.62;85.71
68912;SHT31;55953;51.650;-0.522;2022-12-18T11:22:36;2.67;85.72
68912;SHT31;55953;51.650;-0.522;2022-12-18T11:28:04;2.72;85.76
68912;SHT31;55953;51.650;-0.522;2022-12-18T11:31:11;2.72;85.81
68912;SHT31;55953;51.650;-0.522;2022-12-18T11:34:10;2.77;85.90
68912;SHT31;55953;51.650;-0.522;2022-12-18T11:36:57;2.81;85.94
68912;SHT31;55953;51.650;-0.522;2022-12-18T11:50:25;2.78;85.77
68912;SHT31;55953;51.650;-0.522;2022-12-18T11:53:12;2.72;85.96
68912;SHT31;55953;51.650;-0.522;2022-12-18T11:58:50;2.65;86.24
68912;SHT31;55953;51.650;-0.522;2022-12-18T12:01:31;2.63;86.30
68912;SHT31;55953;51.650;-0.522;2022-12-18T12:07:38;2.69;86.42
68912;SHT31;55953;51.650;-0.522;2022-12-18T12:10:30;2.76;86.53
68912;SHT31;55953;51.650;-0.522;2022-12-18T12:19:06;2.77;86.57
68912;SHT31;55953;51.650;-0.522;2022-12-18T12:25:00;2.74;86.78
68912;SHT31;55953;51.650;-0.522;2022-12-18T12:30:18;2.77;86.86
68912;SHT31;55953;51.650;-0.522;2022-12-18T12:38:43;2.75;87.13
68912;SHT31;55953;51.650;-0.522;2022-12-18T12:41:30;2.69;87.25
68912;SHT31;55953;51.650;-0.522;2022-12-18T12:44:22;2.68;87.49
68912;SHT31;55953;51.650;-0.522;2022-12-18T12:46:58;2.67;87.54
68912;SHT31;55953;51.650;-0.522;2022-12-18T12:49:31;2.65;87.82
68912;SHT31;55953;51.650;-0.522;2022-12-18T12:52:11;2.65;87.86
68912;SHT31;55953;51.650;-0.522;2022-12-18T12:54:45;2.63;87.96
68912;SHT31;55953;51.650;-0.522;2022-12-18T12:57:21;2.63;88.25
68912;SHT31;55953;51.650;-0.522;2022-12-18T13:00:17;2.62;88.24
68912;SHT31;55953;51.650;-0.522;2022-12-18T13:02:48;2.65;88.27
68912;SHT31;55953;51.650;-0.522;2022-12-18T13:05:42;2.65;88.40
68912;SHT31;55953;51.650;-0.522;2022-12-18T13:08:23;2.64;88.48
68912;SHT31;55953;51.650;-0.522;2022-12-18T13:11:28;2.63;88.59
68912;SHT31;55953;51.650;-0.522;2022-12-18T13:14:42;2.66;88.77
68912;SHT31;55953;51.650;-0.522;2022-12-18T13:19:51;2.67;88.74
68912;SHT31;55953;51.650;-0.522;2022-12-18T13:22:31;2.68;88.93
68912;SHT31;55953;51.650;-0.522;2022-12-18T13:30:50;2.71;89.17
68912;SHT31;55953;51.650;-0.522;2022-12-18T13:35:53;2.68;89.42
68912;SHT31;55953;51.650;-0.522;2022-12-18T13:38:44;2.68;89.59
68912;SHT31;55953;51.650;-0.522;2022-12-18T13:43:47;2.73;89.68
68912;SHT31;55953;51.650;-0.522;2022-12-18T13:54:51;2.72;89.75
68912;SHT31;55953;51.650;-0.522;2022-12-18T13:57:27;2.72;90.12
68912;SHT31;55953;51.650;-0.522;2022-12-18T14:00:25;2.73;90.40
68912;SHT31;55953;51.650;-0.522;2022-12-18T14:02:56;2.75;90.45
68912;SHT31;55953;51.650;-0.522;2022-12-18T14:05:27;2.77;90.34
68912;SHT31;55953;51.650;-0.522;2022-12-18T14:08:00;2.78;90.45
68912;SHT31;55953;51.650;-0.522;2022-12-18T14:10:35;2.80;90.36
68912;SHT31;55953;51.650;-0.522;2022-12-18T14:16:01;2.83;90.56
68912;SHT31;55953;51.650;-0.522;2022-12-18T14:18:45;2.82;90.61
68912;SHT31;55953;51.650;-0.522;2022-12-18T14:21:45;2.81;90.71
68912;SHT31;55953;51.650;-0.522;2022-12-18T14:24:20;2.79;90.95
68912;SHT31;55953;51.650;-0.522;2022-12-18T14:26:49;2.80;90.95
68912;SHT31;55953;51.650;-0.522;2022-12-18T14:34:49;2.83;91.05
68912;SHT31;55953;51.650;-0.522;2022-12-18T14:37:21;2.84;91.04
68912;SHT31;55953;51.650;-0.522;2022-12-18T14:39:53;2.82;90.87
68912;SHT31;55953;51.650;-0.522;2022-12-18T14:42:26;2.85;90.99
68912;SHT31;55953;51.650;-0.522;2022-12-18T14:48:24;2.89;91.31
68912;SHT31;55953;51.650;-0.522;2022-12-18T14:53:39;2.93;91.11
68912;SHT31;55953;51.650;-0.522;2022-12-18T15:04:43;2.99;91.22
68912;SHT31;55953;51.650;-0.522;2022-12-18T15:07:19;3.01;91.37
68912;SHT31;55953;51.650;-0.522;2022-12-18T15:12:38;3.01;91.32
68912;SHT31;55953;51.650;-0.522;2022-12-18T15:20:43;3.06;91.28
68912;SHT31;55953;51.650;-0.522;2022-12-18T15:23:18;3.07;91.36
68912;SHT31;55953;51.650;-0.522;2022-12-18T15:26:10;3.10;91.46
68912;SHT31;55953;51.650;-0.522;2022-12-18T15:31:24;3.08;91.39
68912;SHT31;55953;51.650;-0.522;2022-12-18T15:36:26;3.11;91.62
68912;SHT31;55953;51.650;-0.522;2022-12-18T15:38:57;3.11;91.52
68912;SHT31;55953;51.650;-0.522;2022-12-18T15:41:33;3.11;91.79
68912;SHT31;55953;51.650;-0.522;2022-12-18T15:44:15;3.14;91.86
68912;SHT31;55953;51.650;-0.522;2022-12-18T15:46:51;3.18;91.83
68912;SHT31;55953;51.650;-0.522;2022-12-18T15:49:18;3.20;92.05
68912;SHT31;55953;51.650;-0.522;2022-12-18T15:51:48;3.22;91.80
68912;SHT31;55953;51.650;-0.522;2022-12-18T15:54:20;3.26;91.92
68912;SHT31;55953;51.650;-0.522;2022-12-18T15:57:09;3.27;91.97
68912;SHT31;55953;51.650;-0.522;2022-12-18T15:59:51;3.28;91.80
68912;SHT31;55953;51.650;-0.522;2022-12-18T16:02:21;3.31;91.92
68912;SHT31;55953;51.650;-0.522;2022-12-18T16:04:51;3.36;91.98
68912;SHT31;55953;51.650;-0.522;2022-12-18T16:07:20;3.41;92.07
68912;SHT31;55953;51.650;-0.522;2022-12-18T16:09:52;3.46;92.07
68912;SHT31;55953;51.650;-0.522;2022-12-18T16:12:23;3.46;92.09
68912;SHT31;55953;51.650;-0.522;2022-12-18T16:14:52;3.47;92.03
68912;SHT31;55953;51.650;-0.522;2022-12-18T16:17:20;3.49;92.07
68912;SHT31;55953;51.650;-0.522;2022-12-18T16:19:48;3.52;92.16
68912;SHT31;55953;51.650;-0.522;2022-12-18T16:22:20;3.56;92.34
68912;SHT31;55953;51.650;-0.522;2022-12-18T16:24:54;3.59;92.16
68912;SHT31;55953;51.650;-0.522;2022-12-18T16:27:23;3.62;92.12
68912;SHT31;55953;51.650;-0.522;2022-12-18T16:29:52;3.65;92.06
68912;SHT31;55953;51.650;-0.522;2022-12-18T16:32:21;3.71;92.20
68912;SHT31;55953;51.650;-0.522;2022-12-18T16:34:51;3.74;92.22
68912;SHT31;55953;51.650;-0.522;2022-12-18T16:37:19;3.78;92.20
68912;SHT31;55953;51.650;-0.522;2022-12-18T16:39:47;3.80;92.27
68912;SHT31;55953;51.650;-0.522;2022-12-18T16:42:16;3.80;92.36
68912;SHT31;55953;51.650;-0.522;2022-12-18T16:44:47;3.82;92.25
68912;SHT31;55953;51.650;-0.522;2022-12-18T16:47:18;3.87;92.36
68912;SHT31;55953;51.650;-0.522;2022-12-18T16:49:46;3.94;92.49
68912;SHT31;55953;51.650;-0.522;2022-12-18T16:52:18;3.99;92.41
68912;SHT31;55953;51.650;-0.522;2022-12-18T16:54:46;4.03;92.57
68912;SHT31;55953;51.650;-0.522;2022-12-18T16:57:15;4.09;92.73
68912;SHT31;55953;51.650;-0.522;2022-12-18T16:59:45;4.11;92.55
68912;SHT31;55953;51.650;-0.522;2022-12-18T17:02:18;4.13;92.55
68912;SHT31;55953;51.650;-0.522;2022-12-18T17:04:52;4.16;92.50
68912;SHT31;55953;51.650;-0.522;2022-12-18T17:07:23;4.20;92.54
68912;SHT31;55953;51.650;-0.522;2022-12-18T17:09:52;4.25;92.68
68912;SHT31;55953;51.650;-0.522;2022-12-18T17:12:21;4.26;92.54
68912;SHT31;55953;51.650;-0.522;2022-12-18T17:14:49;4.30;92.55
68912;SHT31;55953;51.650;-0.522;2022-12-18T17:17:17;4.35;92.64
68912;SHT31;55953;51.650;-0.522;2022-12-18T17:19:49;4.40;92.69
68912;SHT31;55953;51.650;-0.522;2022-12-18T17:22:19;4.44;92.68
68912;SHT31;55953;51.650;-0.522;2022-12-18T17:24:49;4.48;92.70
68912;SHT31;55953;51.650;-0.522;2022-12-18T17:27:17;4.54;92.98
68912;SHT31;55953;51.650;-0.522;2022-12-18T17:29:45;4.57;92.90
68912;SHT31;55953;51.650;-0.522;2022-12-18T17:32:15;4.61;92.89
68912;SHT31;55953;51.650;-0.522;2022-12-18T17:34:44;4.69;93.03
68912;SHT31;55953;51.650;-0.522;2022-12-18T17:37:12;4.78;93.18
68912;SHT31;55953;51.650;-0.522;2022-12-18T17:39:40;4.85;93.31
68912;SHT31;55953;51.650;-0.522;2022-12-18T17:42:08;4.90;93.19
68912;SHT31;55953;51.650;-0.522;2022-12-18T17:44:42;4.94;93.23
68912;SHT31;55953;51.650;-0.522;2022-12-18T17:47:11;5.03;93.21
68912;SHT31;55953;51.650;-0.522;2022-12-18T17:49:40;5.10;93.21
68912;SHT31;55953;51.650;-0.522;2022-12-18T17:52:08;5.14;93.15
68912;SHT31;55953;51.650;-0.522;2022-12-18T17:54:36;5.21;93.41
68912;SHT31;55953;51.650;-0.522;2022-12-18T17:57:07;5.24;93.43
68912;SHT31;55953;51.650;-0.522;2022-12-18T17:59:35;5.32;93.48
68912;SHT31;55953;51.650;-0.522;2022-12-18T18:02:03;5.34;93.36
68912;SHT31;55953;51.650;-0.522;2022-12-18T18:04:31;5.38;93.46
68912;SHT31;55953;51.650;-0.522;2022-12-18T18:06:59;5.45;93.53
68912;SHT31;55953;51.650;-0.522;2022-12-18T18:09:27;5.50;93.54
68912;SHT31;55953;51.650;-0.522;2022-12-18T18:11:55;5.54;93.60
68912;SHT31;55953;51.650;-0.522;2022-12-18T18:14:42;5.56;93.67
68912;SHT31;55953;51.650;-0.522;2022-12-18T18:17:10;5.59;93.65
68912;SHT31;55953;51.650;-0.522;2022-12-18T18:19:38;5.62;93.67
68912;SHT31;55953;51.650;-0.522;2022-12-18T18:22:10;5.66;93.79
68912;SHT31;55953;51.650;-0.522;2022-12-18T18:24:38;5.71;93.87
68912;SHT31;55953;51.650;-0.522;2022-12-18T18:27:06;5.73;93.67
68912;SHT31;55953;51.650;-0.522;2022-12-18T18:29:34;5.76;93.76
68912;SHT31;55953;51.650;-0.522;2022-12-18T18:32:03;5.80;93.82